Upstream stations:
Downstream station:
SHEF ID: OEMO2 Okemah Hwy 56
STATION TYPE:
PRECIP STAGE RIV-FLOW VOLTAGE BAT-LOAD
in ft cfs volt volt
Ccp-Rev Ccp-Rev Ccp-Rev Ccp-Rev Ccp-Rev
(US/Central)
03/18 00:00 0.29 9.30 431 12.81 12.73
03/18 01:00 0.16 9.33 440 12.81 12.65
03/18 02:00 0.02 9.35 446 12.73 12.65
03/18 03:00 0.00 9.35 446 12.73 12.65
03/18 04:00 0.00 9.37 452 12.73 12.65
03/18 05:00 0.00 9.39 457 12.73 12.65
03/18 06:00 0.00 9.41 463 12.73 12.65
03/18 07:00 0.00 9.39 457 12.73 12.65
03/18 08:00 0.00 9.39 457 12.65 12.57
03/18 09:00 0.00 9.36 449 12.73 12.65
03/18 10:00 0.00 9.35 446 12.73 12.65
03/18 11:00 0.00 9.34 443 12.81 12.73
03/18 12:00 0.00 9.32 437 12.89 12.73
03/18 13:00 0.00 9.32 437 13.05 12.97
03/18 14:00 0.00 9.27 422 13.44 13.05
03/18 15:00 0.00 9.31 434 13.68 13.13
03/18 16:00 0.00 9.31 434 14.16 13.05
03/18 17:00 0.00 9.30 431 14.08 13.05
03/18 18:00 0.00 9.27 422 13.76 12.97
03/18 19:00 0.00 9.28 425 13.60 12.97
03/18 20:00 0.00 9.33 440 12.97 12.89
03/18 21:00 0.00 9.34 443 12.89 12.81
03/18 22:00 0.00 9.35 446 12.81 12.73
03/18 23:00 ---- ---- ---- ---- ----